Latest Weather Observations for Tarcoola

IDS60801

Issued at 2:02 pm CDT Saturday 20 December 2014 (issued every 30 minutes, with the page automatically refreshed every 10 minutes)

About weather observations | Map of weather stations | Latest weather observations for SA | Other Formats
Station Details ID: 016098 Name: TARCOOLA AERO Lat: -30.71 Lon: 134.58 Height: 123.0 m
Data from the previous 72 hours. | See also: Recent months at Tarcoola
Date/Time
CDT
Temp
°C
App
Temp
°C
Dew
Point
Rel
Hum
%
Delta-T
°C
Wind Press
QNH
hPa
Press
MSL
hPa
Rain
since 9 am
mm
Dir
 
Spd
km/h
Gust
km/h
Spd
kts
Gust
kts
20/02:00pm 34.5 31.3 1.0 12 16.8 NNE 7 17 4 9 1013.8 1013.1 0.0
20/01:30pm 33.4 29.7 0.1 12 16.4 ENE 9 20 5 11 1014.4 1013.7 0.0
20/01:00pm 32.5 27.8 0.6 13 15.7 NNE 15 24 8 13 1015.0 1014.4 0.0
20/12:30pm 32.3 27.9 0.4 13 15.6 NE 13 26 7 14 1015.4 1014.8 0.0
20/12:00pm 31.3 26.9 2.5 16 14.5 NE 15 26 8 14 1015.7 1015.1 0.0
20/11:30am 30.1 25.0 4.0 19 13.4 NE 20 32 11 17 1016.0 1015.4 0.0
20/11:00am 29.1 24.4 5.2 22 12.5 ENE 19 26 10 14 1016.3 1015.7 0.0
20/10:30am 27.8 23.4 6.6 26 11.2 ENE 19 30 10 16 1016.7 1016.1 0.0
20/10:00am 27.1 21.7 6.5 27 10.9 ENE 24 32 13 17 1016.8 1016.2 0.0
20/09:30am 25.4 19.9 6.1 29 10.0 ENE 24 33 13 18 1017.0 1016.4 0.0
20/09:00am 24.1 18.3 6.4 32 9.1 E 26 33 14 18 1016.9 1016.3 0.0
20/08:30am 22.6 16.9 6.8 36 8.1 E 26 33 14 18 1017.1 1016.5 0.0
20/08:00am 21.7 17.2 6.8 38 7.6 E 20 30 11 16 1017.1 1016.5 0.0
20/07:30am 20.8 15.3 6.0 38 7.4 E 24 32 13 17 1016.9 1016.3 0.0
20/07:00am 20.4 15.2 5.6 38 7.4 E 22 28 12 15 1016.5 1015.9 0.0
20/06:30am 20.1 14.4 5.0 37 7.4 ESE 24 30 13 16 1016.1 1015.5 0.0
20/06:00am 20.3 15.2 3.9 34 7.9 ESE 20 28 11 15 1016.2 1015.6 0.0
20/05:30am 20.7 15.3 2.5 30 8.5 ESE 20 28 11 15 1016.3 1015.7 0.0
20/05:00am 21.2 15.8 2.5 29 8.8 ESE 20 30 11 16 1016.0 1015.4 0.0
20/04:30am 20.7 16.6 2.0 29 8.7 ESE 13 17 7 9 1016.1 1015.5 0.0
20/04:00am 18.4 17.1 4.2 39 6.8 CALM 0 0 0 0 1016.3 1015.7 0.0
20/03:30am 20.7 17.6 3.4 32 8.3 SE 9 11 5 6 1016.4 1015.8 0.0
20/03:00am 21.1 18.2 4.6 34 8.1 SE 9 15 5 8 1016.3 1015.7 0.0
20/02:30am 19.8 17.6 6.2 41 6.8 SW 7 9 4 5 1016.5 1015.9 0.0
20/02:00am 21.3 18.7 6.0 37 7.7 S 9 13 5 7 1016.7 1016.1 0.0
20/01:30am 22.4 18.3 6.2 35 8.3 S 17 22 9 12 1016.8 1016.2 0.0
20/01:00am 22.9 19.6 6.2 34 8.5 SSW 13 19 7 10 1016.5 1015.9 0.0
20/12:30am 23.3 19.9 5.7 32 8.9 S 13 17 7 9 1016.6 1016.0 0.0
20/12:00am 24.0 20.5 5.4 30 9.4 S 13 17 7 9 1016.8 1016.2 0.0
 
Date/Time
CDT
Temp
°C
App
Temp
°C
Dew
Point
Rel
Hum
%
Delta-T
°C
Wind Press
QNH
hPa
Press
MSL
hPa
Rain
since 9 am
mm
Dir
 
Spd
km/h
Gust
km/h
Spd
kts
Gust
kts
19/11:30pm 25.0 20.5 4.2 26 10.4 S 17 24 9 13 1017.1 1016.5 0.0
19/11:00pm 25.9 20.8 3.2 23 11.2 SSW 19 30 10 16 1016.9 1016.3 0.0
19/10:30pm 26.5 21.5 -4.1 13 13.3 SE 13 15 7 8 1016.5 1015.9 0.0
19/10:00pm 27.5 22.6 -3.3 13 13.7 SE 13 17 7 9 1016.5 1015.9 0.0
19/09:30pm 28.7 23.2 -2.4 13 14.2 SE 17 20 9 11 1016.6 1016.0 0.0
19/09:00pm 29.3 24.0 -0.9 14 14.2 SE 17 22 9 12 1016.5 1015.9 0.0
19/08:30pm 30.1 24.8 -0.3 14 14.5 SSE 17 20 9 11 1016.2 1015.6 0.0
19/08:00pm 31.1 26.2 -0.5 13 15.2 S 15 22 8 12 1016.1 1015.5 0.0
19/07:30pm 31.4 26.9 -0.3 13 15.3 S 13 20 7 11 1016.0 1015.4 0.0
19/07:00pm 31.6 26.8 -0.1 13 15.4 S 15 26 8 14 1016.0 1015.4 0.0
19/06:30pm 32.1 26.5 0.2 13 15.6 S 19 35 10 19 1015.9 1015.3 0.0
19/06:00pm 32.1 27.5 1.3 14 15.3 SSE 15 32 8 17 1015.9 1015.3 0.0
19/05:30pm 32.4 28.9 1.5 14 15.4 W 9 20 5 11 1015.9 1015.3 0.0
19/05:00pm 31.6 27.3 0.9 14 15.1 WSW 13 22 7 12 1016.4 1015.8 0.0
19/04:30pm 30.9 26.5 0.3 14 14.8 SSW 13 22 7 12 1016.8 1016.2 0.0
19/04:00pm 31.2 28.3 2.4 16 14.5 N 7 17 4 9 1017.1 1016.5 0.0
19/03:30pm 29.7 26.7 2.1 17 13.7 ENE 7 24 4 13 1017.6 1017.0 0.0
19/03:00pm 29.5 25.5 2.7 18 13.4 SSW 13 20 7 11 1018.1 1017.5 0.0
19/02:30pm 28.1 24.9 3.0 20 12.5 S 9 19 5 10 1018.6 1018.0 0.0
19/02:00pm 28.4 25.8 4.0 21 12.4 N 7 19 4 10 1019.1 1018.5 0.0
19/01:30pm 27.0 23.9 3.5 22 11.7 S 9 19 5 10 1019.6 1019.0 0.0
19/01:00pm 26.5 23.6 4.9 25 11.0 SW 9 19 5 10 1020.0 1019.4 0.0
19/12:30pm 25.7 23.0 5.8 28 10.3 SSE 9 19 5 10 1020.2 1019.6 0.0
19/12:00pm 24.3 21.1 5.1 29 9.7 SSE 11 20 6 11 1020.5 1019.8 0.0
19/11:30am 23.7 21.5 6.0 32 9.0 S 7 19 4 10 1020.6 1019.9 0.0
19/11:00am 22.4 19.1 6.2 35 8.3 SE 13 20 7 11 1020.6 1019.9 0.0
19/10:30am 21.7 17.6 6.4 37 7.8 ESE 17 24 9 13 1020.6 1019.9 0.0
19/10:00am 21.6 18.1 7.4 40 7.4 ESE 15 24 8 13 1020.7 1020.0 0.0
19/09:30am 20.3 15.9 7.3 43 6.7 ESE 20 33 11 18 1020.7 1020.0 0.0
19/09:00am 20.0 15.9 8.0 46 6.2 SE 19 26 10 14 1020.6 1019.9 0.0
19/08:30am 19.0 14.4 8.1 49 5.6 SE 22 28 12 15 1020.2 1019.6 0.0
19/08:00am 17.9 13.6 7.9 52 5.1 SE 20 30 11 16 1020.0 1019.4 0.0
19/07:30am 16.3 12.6 7.8 57 4.3 S 17 20 9 11 1019.4 1018.8 0.0
19/07:00am 15.1 12.2 8.1 63 3.5 S 13 15 7 8 1019.1 1018.5 0.0
19/06:30am 14.3 12.1 8.0 66 3.1 S 9 13 5 7 1019.0 1018.4 0.0
19/06:00am 14.6 12.1 8.1 65 3.3 S 11 15 6 8 1018.3 1017.7 0.0
19/05:30am 15.0 12.5 8.0 63 3.5 S 11 13 6 7 1018.1 1017.5 0.0
19/05:00am 15.4 12.8 7.9 61 3.8 S 11 15 6 8 1017.9 1017.3 0.0
19/04:30am 16.1 13.2 8.3 60 4.0 S 13 17 7 9 1017.8 1017.2 0.0
19/04:00am 16.3 13.4 8.3 59 4.1 S 13 17 7 9 1017.7 1017.1 0.0
19/03:30am 16.7 13.5 8.4 58 4.2 S 15 22 8 12 1017.8 1017.2 0.0
19/03:00am 17.1 13.6 8.8 58 4.3 S 17 24 9 13 1017.8 1017.2 0.0
19/02:30am 17.2 13.4 9.1 59 4.2 S 19 26 10 14 1017.6 1017.0 0.0
19/02:00am 17.6 13.3 9.5 59 4.3 SSW 22 30 12 16 1017.6 1017.0 0.0
19/01:30am 18.0 13.4 9.6 58 4.4 S 24 33 13 18 1017.5 1016.9 0.0
19/01:00am 18.4 13.8 9.5 56 4.7 S 24 35 13 19 1017.6 1017.0 0.0
19/12:30am 18.9 14.1 8.8 52 5.3 SSW 24 33 13 18 1017.8 1017.2 0.0
19/12:00am 19.6 13.6 8.6 49 5.8 SSW 30 44 16 24 1017.4 1016.8 0.0
 
Date/Time
CDT
Temp
°C
App
Temp
°C
Dew
Point
Rel
Hum
%
Delta-T
°C
Wind Press
QNH
hPa
Press
MSL
hPa
Rain
since 9 am
mm
Dir
 
Spd
km/h
Gust
km/h
Spd
kts
Gust
kts
18/11:30pm 20.5 14.8 8.2 45 6.4 SSW 28 39 15 21 1017.3 1016.7 0.0
18/11:08pm 21.1 15.1 8.7 45 6.6 SSW 30 52 16 28 1016.8 1016.2 0.0
18/11:00pm 21.4 15.6 8.0 42 7.0 SSW 28 44 15 24 1016.9 1016.3 0.0
18/10:30pm 22.4 15.8 6.2 35 8.3 SSW 30 41 16 22 1016.5 1015.9 0.0
18/10:00pm 23.5 16.8 5.4 31 9.2 SSW 30 41 16 22 1016.2 1015.6 0.0
18/09:30pm 24.5 18.0 4.8 28 9.9 SSW 28 39 15 21 1015.9 1015.3 0.0
18/09:00pm 25.4 18.2 5.1 27 10.3 SSW 32 41 17 22 1015.6 1015.0 0.0
18/08:30pm 26.6 19.5 3.8 23 11.4 SSW 30 41 16 22 1015.2 1014.6 0.0
18/08:00pm 27.8 20.3 3.5 21 12.2 SSW 32 39 17 21 1014.8 1014.2 0.0
18/07:30pm 29.1 22.1 3.9 20 12.9 SSW 30 44 16 24 1014.3 1013.6 0.0
18/07:00pm 30.4 23.6 4.9 20 13.3 SSW 30 39 16 21 1013.7 1013.0 0.0
18/06:30pm 31.2 24.4 4.9 19 13.8 SSW 30 43 16 23 1013.2 1012.5 0.0
18/06:00pm 32.5 27.0 5.9 19 14.3 SW 24 35 13 19 1012.8 1012.1 0.0
18/05:30pm 32.7 27.1 5.3 18 14.6 SW 24 37 13 20 1012.7 1012.0 0.0
18/05:00pm 33.2 28.4 5.7 18 14.8 SSW 20 44 11 24 1012.7 1012.0 0.0
18/04:30pm 31.6 27.1 4.4 18 14.2 SSW 17 32 9 17 1012.8 1012.1 0.0
18/04:00pm 32.4 28.0 5.0 18 14.5 S 17 32 9 17 1012.9 1012.2 0.0
18/03:30pm 32.5 28.0 4.3 17 14.8 SSW 17 33 9 18 1012.9 1012.2 0.0
18/03:00pm 32.1 27.5 5.6 19 14.2 S 19 28 10 15 1013.0 1012.3 0.0
18/02:30pm 30.7 26.1 3.7 18 13.9 S 17 30 9 16 1013.1 1012.4 0.0
18/02:00pm 30.5 26.0 4.3 19 13.6 S 17 32 9 17 1013.2 1012.5 0.0
18/01:30pm 29.6 25.5 4.3 20 13.0 S 15 32 8 17 1013.5 1012.8 0.0
18/01:00pm 29.3 24.5 4.7 21 12.7 S 19 30 10 16 1013.7 1013.0 0.0
18/12:30pm 27.8 23.3 4.2 22 12.0 S 17 26 9 14 1013.9 1013.2 0.0
18/12:00pm 27.7 23.2 4.1 22 12.0 S 17 28 9 15 1013.9 1013.2 0.0
18/11:30am 26.7 21.8 3.9 23 11.5 S 19 30 10 16 1014.0 1013.3 0.0
18/11:00am 25.5 20.5 3.5 24 10.9 S 19 28 10 15 1014.1 1013.4 0.0
18/10:30am 24.2 19.7 4.0 27 10.0 S 17 22 9 12 1014.2 1013.5 0.0
18/10:00am 23.5 19.0 4.0 28 9.6 S 17 22 9 12 1014.1 1013.4 0.0
18/09:30am 21.4 17.0 4.9 34 8.2 S 17 26 9 14 1014.0 1013.3 0.0
18/09:00am 20.9 16.8 6.4 39 7.4 SSW 17 24 9 13 1013.9 1013.2 0.0
18/08:30am 19.2 14.8 6.7 44 6.3 SSW 19 22 10 12 1013.5 1012.8 0.0
18/08:00am 18.4 14.4 6.6 46 5.9 SSW 17 20 9 11 1013.0 1012.3 0.0
18/07:30am 17.5 14.6 6.4 48 5.5 SSW 11 15 6 8 1012.4 1011.7 0.0
18/07:00am 16.6 13.2 6.1 50 5.1 S 13 19 7 10 1011.4 1010.8 0.0
18/06:30am 15.7 12.1 5.0 49 5.1 SSW 13 15 7 8 1011.2 1010.6 0.0
18/06:00am 15.7 12.7 4.1 46 5.4 SSW 9 11 5 6 1010.7 1010.1 0.0
18/05:30am 16.3 13.3 4.0 44 5.8 SW 9 13 5 7 1010.5 1009.9 0.0
18/05:00am 16.8 13.7 3.8 42 6.1 SW 9 13 5 7 1010.2 1009.6 0.0
18/04:30am 18.1 15.1 4.3 40 6.6 SSW 9 13 5 7 1009.9 1009.3 0.0
18/04:00am 18.8 15.1 4.2 38 7.0 SSW 13 15 7 8 1010.0 1009.4 0.0
18/03:30am 18.9 15.8 3.5 36 7.3 SSW 9 13 5 7 1010.0 1009.4 0.0
18/03:00am 18.4 15.2 3.1 36 7.2 SSW 9 13 5 7 1009.9 1009.3 0.0
18/02:30am 18.8 15.6 3.0 35 7.4 SSW 9 11 5 6 1010.0 1009.4 0.0
18/02:00am 19.6 16.7 2.5 32 8.0 SSW 7 9 4 5 1009.7 1009.1 0.0
18/01:30am 20.6 17.8 2.9 31 8.4 SSW 7 11 4 6 1009.6 1009.0 0.0
18/01:00am 21.6 18.0 2.8 29 8.9 SSW 11 15 6 8 1009.8 1009.2 0.0
18/12:30am 22.4 18.1 3.0 28 9.3 SSW 15 20 8 11 1009.9 1009.3 0.0
18/12:00am 23.2 18.5 3.2 27 9.7 SSW 17 26 9 14 1009.5 1008.9 0.0
 
Date/Time
CDT
Temp
°C
App
Temp
°C
Dew
Point
Rel
Hum
%
Delta-T
°C
Wind Press
QNH
hPa
Press
MSL
hPa
Rain
since 9 am
mm
Dir
 
Spd
km/h
Gust
km/h
Spd
kts
Gust
kts
17/11:30pm 24.1 20.3 4.0 27 10.0 SSW 13 17 7 9 1009.1 1008.5 0.0
17/11:00pm 24.7 20.9 3.9 26 10.3 S 13 17 7 9 1008.6 1008.0 0.0
17/10:30pm 25.4 20.0 4.5 26 10.6 S 22 30 12 16 1008.1 1007.5 0.0
17/10:00pm 26.2 20.2 5.2 26 10.8 S 26 35 14 19 1008.3 1007.7 0.0
17/09:36pm 27.5 21.6 3.9 22 11.9 SSW 24 44 13 24 1008.0 1007.4 0.0
17/09:30pm 29.1 24.1 -1.1 14 14.2 SSW 15 22 8 12 1007.9 1007.3 0.0
17/09:00pm 29.6 24.3 -0.7 14 14.4 SW 17 24 9 13 1007.5 1006.9 0.0
17/08:30pm 30.2 25.3 -0.2 14 14.6 SW 15 22 8 12 1007.1 1006.4 0.0
17/08:00pm 30.5 24.9 0.0 14 14.7 SW 19 30 10 16 1006.9 1006.2 0.0
17/07:30pm 30.8 24.7 0.2 14 14.9 SW 22 32 12 17 1006.8 1006.1 0.0
17/07:00pm 31.0 25.7 -0.6 13 15.1 SW 17 26 9 14 1006.1 1005.4 0.0
17/06:30pm 31.1 25.2 -0.5 13 15.2 SW 20 30 11 16 1006.1 1005.4 0.0
17/06:00pm 31.7 25.9 -1.2 12 15.7 WNW 19 28 10 15 1006.5 1005.8 0.0
17/05:30pm 31.6 25.0 -0.1 13 15.4 W 24 39 13 21 1006.7 1006.0 0.0
17/05:00pm 32.2 27.4 0.3 13 15.6 NW 15 30 8 16 1006.7 1006.0 0.0
17/04:30pm 32.3 27.5 0.4 13 15.7 WSW 15 26 8 14 1007.1 1006.4 0.0
17/04:00pm 31.7 26.5 -0.1 13 15.4 WSW 17 35 9 19 1007.3 1006.6 0.0
17/03:30pm 30.8 27.0 -0.8 13 15.1 WNW 9 20 5 11 1007.6 1007.0 0.0
17/03:00pm 30.3 25.7 -1.2 13 14.9 NW 13 24 7 13 1007.9 1007.3 0.0
17/02:30pm 28.9 24.4 -0.3 15 13.9 WNW 13 24 7 13 1008.3 1007.7 0.0

Other Formats:

Comma delimited format used in spreadsheet applications
http://www.bom.gov.au/fwo/IDS60801/IDS60801.94655.axf

JavaScript Object Notation format (JSON) in row-major order
http://www.bom.gov.au/fwo/IDS60801/IDS60801.94655.json